Terminal Aerodrome Forecast
Issued by NWS

Home | Current Version | Previous Version | Text Only | Print | Product List | Glossary On
Versions: 1 2 3 4 5 6 7 8 9 10 11 12 13 14 15
054
FTUS42 TJSJ 201741
TAFJMZ
TAF
TJMZ 201741Z 2018/2118 02040G60KT 1SM +TSRA SCT015 OVC025CB
     FM202300 27025G50KT 1SM +TSRA SCT015 OVC025CB
     FM210800 18018G30KT 6SM SHRA SCT015 BKN025
      AMD NOT SKED=

USA.gov is the U.S. government's official web portal to all federal, state and local government web resources and services.